YBRO weather

Bruce Rock Airport
Western Australia, Australia

Public forecast

Using degrees Celsius for public forecast. Weather courtesy of forecast.io.

METAR (pilot weather report)

Closest report is RAAF Base Pearce, 108.1 nm (200.1 km) W. Retrieved 2019/04/19 15:30 UTC (25 minutes ago):

YPEA 191530Z AUTO 00000KT 9999 -SHRA SCT039 SCT046 BKN053 10/07 Q1022

TAF (pilot weather forecast)

Closest forecast is RAAF Base Pearce, 108.1 nm (200.1 km) W. Retrieved 2019/04/19 12:00 UTC (4 hours ago):

TAF YPEA 191035Z 1912/2006 23014G28KT 9999 -SHRA BKN035 FM191600 17007KT 9999 BKN035 FM200500 19008KT CAVOK INTER 1912/1916 23025G40KT 3000 SHRAGS BKN015